createdAt,value
2023-01-25T00:01:11.945Z,93.63
2023-01-25T00:04:15.094Z,93.64
2023-01-25T00:07:18.182Z,93.31
2023-01-25T00:10:21.241Z,93.70
2023-01-25T00:13:24.310Z,93.83
2023-01-25T00:16:27.612Z,93.77
2023-01-25T00:19:31.388Z,93.80
2023-01-25T00:22:34.683Z,94.01
2023-01-25T00:25:38.416Z,93.90
2023-01-25T00:28:41.761Z,93.97
2023-01-25T00:31:56.004Z,94.07
2023-01-25T00:34:59.239Z,94.40
2023-01-25T00:38:06.725Z,94.28
2023-01-25T00:41:11.252Z,94.21
2023-01-25T00:44:14.523Z,94.41
2023-01-25T00:47:18.168Z,94.46
2023-01-25T00:50:21.974Z,94.46
2023-01-25T00:53:24.982Z,94.34
2023-01-25T00:56:28.299Z,94.29
2023-01-25T00:59:31.407Z,94.22
2023-01-25T01:02:35.086Z,94.33
2023-01-25T01:05:39.009Z,94.47
2023-01-25T01:08:42.887Z,94.53
2023-01-25T01:11:46.582Z,94.57
2023-01-25T01:14:50.765Z,94.34
2023-01-25T01:17:54.199Z,94.49
2023-01-25T01:20:57.967Z,94.71
2023-01-25T01:24:01.010Z,94.54
2023-01-25T01:27:04.452Z,94.61
2023-01-25T01:30:08.231Z,94.47
2023-01-25T01:33:11.233Z,94.54
2023-01-25T01:36:17.493Z,94.48
2023-01-25T01:39:20.707Z,94.53
2023-01-25T01:42:23.908Z,94.69
2023-01-25T01:45:52.049Z,94.58
2023-01-25T01:48:58.087Z,94.51
2023-01-25T01:52:12.671Z,94.49
2023-01-25T01:55:22.393Z,94.47
2023-01-25T01:58:26.277Z,94.57
2023-01-25T02:01:29.780Z,94.78
2023-01-25T02:04:33.543Z,94.65
2023-01-25T02:07:39.165Z,94.56
2023-01-25T02:10:44.424Z,94.80
2023-01-25T02:13:48.444Z,94.71
2023-01-25T02:16:51.572Z,94.57
2023-01-25T02:20:03.798Z,94.73
2023-01-25T02:23:34.161Z,94.51
2023-01-25T02:26:38.139Z,94.69
2023-01-25T02:29:42.493Z,94.72
2023-01-25T02:32:45.731Z,94.47
2023-01-25T02:35:51.819Z,94.60
2023-01-25T02:39:00.679Z,94.71
2023-01-25T02:42:04.204Z,94.54
2023-01-25T02:45:13.581Z,94.44
2023-01-25T02:48:16.823Z,94.36
2023-01-25T02:51:20.270Z,94.71
2023-01-25T02:54:26.396Z,94.56
2023-01-25T02:57:29.644Z,94.74
2023-01-25T03:00:32.889Z,94.48
2023-01-25T03:03:36.280Z,94.38
2023-01-25T03:06:40.156Z,94.64
2023-01-25T03:09:44.302Z,94.44
2023-01-25T03:12:48.051Z,94.51
2023-01-25T03:15:51.440Z,94.61
2023-01-25T03:18:56.113Z,94.54
2023-01-25T03:21:59.213Z,94.61
2023-01-25T03:25:02.613Z,94.73
2023-01-25T03:28:05.651Z,94.51
2023-01-25T03:31:11.657Z,94.66
2023-01-25T03:34:15.239Z,94.73
2023-01-25T03:37:19.905Z,94.62
2023-01-25T03:40:23.074Z,94.62
2023-01-25T03:43:26.725Z,94.73
2023-01-25T03:46:30.474Z,94.76
2023-01-25T03:49:33.862Z,94.90
2023-01-25T03:52:45.531Z,94.86
2023-01-25T03:55:50.317Z,94.60
2023-01-25T03:58:53.820Z,94.79
2023-01-25T04:01:57.165Z,94.85
2023-01-25T04:05:00.685Z,94.87
2023-01-25T04:08:03.824Z,94.91
2023-01-25T04:11:09.716Z,94.79
2023-01-25T04:14:12.910Z,94.81
2023-01-25T04:17:16.972Z,94.97
2023-01-25T04:20:20.215Z,94.95
2023-01-25T04:23:25.183Z,94.64
2023-01-25T04:26:29.066Z,94.90
2023-01-25T04:29:40.919Z,94.69
2023-01-25T04:32:45.107Z,94.51
2023-01-25T04:35:49.506Z,94.89
2023-01-25T04:38:55.852Z,94.65
2023-01-25T04:42:00.332Z,94.68
2023-01-25T04:45:03.914Z,94.96
2023-01-25T04:48:10.637Z,94.93
2023-01-25T04:51:15.443Z,94.56
2023-01-25T04:54:19.012Z,94.68
2023-01-25T04:57:23.700Z,94.69
2023-01-25T05:00:28.138Z,94.91
2023-01-25T05:03:31.365Z,94.72
2023-01-25T05:06:35.181Z,94.63
2023-01-25T05:09:38.336Z,94.58
2023-01-25T05:12:41.720Z,94.67
2023-01-25T05:15:44.983Z,94.80
2023-01-25T05:18:49.503Z,94.50
2023-01-25T05:21:58.553Z,94.51
2023-01-25T05:25:03.148Z,94.81
2023-01-25T05:28:07.113Z,94.54
2023-01-25T05:31:10.433Z,94.42
2023-01-25T05:34:13.816Z,94.26
2023-01-25T05:37:19.008Z,94.39
2023-01-25T05:40:22.715Z,94.50
2023-01-25T05:43:26.416Z,94.46
2023-01-25T05:46:31.012Z,94.34
2023-01-25T05:49:34.119Z,94.13
2023-01-25T05:52:38.024Z,94.07
2023-01-25T05:55:41.183Z,94.16
2023-01-25T05:58:44.239Z,94.11
2023-01-25T06:01:47.449Z,94.18
2023-01-25T06:04:51.013Z,93.79
2023-01-25T06:07:54.119Z,93.70
2023-01-25T06:10:57.630Z,93.61
2023-01-25T06:14:00.987Z,94.05
2023-01-25T06:17:04.185Z,93.50
2023-01-25T06:20:08.563Z,93.53
2023-01-25T06:23:11.582Z,93.35
2023-01-25T06:26:15.769Z,93.57
2023-01-25T06:29:18.692Z,93.47
2023-01-25T06:32:21.930Z,93.42
2023-01-25T06:35:24.925Z,93.34
2023-01-25T06:38:27.791Z,93.43
2023-01-25T06:41:30.799Z,93.36
2023-01-25T06:44:34.989Z,93.20
2023-01-25T06:47:37.878Z,93.15
2023-01-25T06:50:40.906Z,93.24
2023-01-25T06:53:45.904Z,92.98
2023-01-25T06:56:48.793Z,92.79
2023-01-25T06:59:51.650Z,92.69
2023-01-25T07:02:54.707Z,92.79
2023-01-25T07:06:02.366Z,92.61
2023-01-25T07:09:09.068Z,92.51
2023-01-25T07:12:12.005Z,92.90
2023-01-25T07:15:15.056Z,92.80
2023-01-25T07:18:18.028Z,92.57
2023-01-25T07:21:23.256Z,92.51
2023-01-25T07:24:28.986Z,92.39
2023-01-25T07:27:34.539Z,92.55
2023-01-25T07:30:37.405Z,92.51
2023-01-25T07:33:40.961Z,92.45
2023-01-25T07:36:44.028Z,92.33
2023-01-25T07:39:49.643Z,92.13
2023-01-25T07:42:52.942Z,92.21
2023-01-25T07:46:01.499Z,92.11
2023-01-25T07:49:04.442Z,92.05
2023-01-25T07:52:07.296Z,91.78
2023-01-25T07:55:10.606Z,91.39
2023-01-25T07:58:13.713Z,91.83
2023-01-25T08:01:19.217Z,92.10
2023-01-25T08:04:22.092Z,91.90
2023-01-25T08:07:24.996Z,91.86
2023-01-25T08:10:27.892Z,91.72
2023-01-25T08:13:31.628Z,91.57
2023-01-25T08:16:34.713Z,91.38
2023-01-25T08:19:37.643Z,91.35
2023-01-25T08:22:40.630Z,90.76
2023-01-25T08:25:43.575Z,90.13
2023-01-25T08:28:46.538Z,89.97
2023-01-25T08:31:49.471Z,90.93
2023-01-25T08:34:52.544Z,90.73
2023-01-25T08:37:55.399Z,90.62
2023-01-25T08:41:08.835Z,90.43
2023-01-25T08:44:11.922Z,90.05
2023-01-25T08:47:14.931Z,90.19
2023-01-25T08:50:17.961Z,90.01
2023-01-25T08:53:20.891Z,90.01
2023-01-25T08:56:23.926Z,89.97
2023-01-25T08:59:27.094Z,89.57
2023-01-25T09:02:29.983Z,89.28
2023-01-25T09:05:37.052Z,89.36
2023-01-25T09:08:40.312Z,89.02
2023-01-25T09:11:43.189Z,88.98
2023-01-25T09:14:45.994Z,89.02
2023-01-25T09:17:53.430Z,88.78
2023-01-25T09:20:56.355Z,88.18
2023-01-25T09:24:08.055Z,88.52
2023-01-25T09:27:12.115Z,88.30
2023-01-25T09:30:18.683Z,87.24
2023-01-25T09:33:25.448Z,87.63
2023-01-25T09:36:28.437Z,87.90
2023-01-25T09:39:31.397Z,86.76
2023-01-25T09:43:13.143Z,86.52
2023-01-25T09:46:41.107Z,86.41
2023-01-25T09:49:55.885Z,87.53
2023-01-25T09:53:20.820Z,86.49
2023-01-25T09:56:30.612Z,84.63
2023-01-25T09:59:33.969Z,84.26
2023-01-25T10:02:52.152Z,84.63
2023-01-25T10:05:57.965Z,84.98
2023-01-25T10:09:08.850Z,85.15
2023-01-25T10:12:24.118Z,84.28
2023-01-25T10:15:40.265Z,84.31
2023-01-25T10:18:54.970Z,84.17
2023-01-25T10:22:05.382Z,83.89
2023-01-25T10:25:17.514Z,83.53
2023-01-25T10:28:51.516Z,84.57
2023-01-25T10:32:23.402Z,83.60
2023-01-25T10:35:36.015Z,83.13
2023-01-25T10:38:45.674Z,83.33
2023-01-25T10:41:56.116Z,83.15
2023-01-25T10:44:59.058Z,81.96
2023-01-25T10:48:08.132Z,82.43
2023-01-25T10:51:29.674Z,83.35
2023-01-25T10:54:32.582Z,81.44
2023-01-25T10:57:36.475Z,81.66
2023-01-25T11:00:42.830Z,79.77
2023-01-25T11:03:45.962Z,80.31
2023-01-25T11:06:51.525Z,80.19
2023-01-25T11:09:54.923Z,80.54
2023-01-25T11:13:29.201Z,77.65
2023-01-25T11:16:36.079Z,78.56
2023-01-25T11:19:41.107Z,79.24
2023-01-25T11:22:55.753Z,77.93
2023-01-25T11:26:19.300Z,78.93
2023-01-25T11:29:25.408Z,78.71
2023-01-25T11:32:28.355Z,79.56
2023-01-25T11:35:34.672Z,79.32
2023-01-25T11:38:40.203Z,79.70
2023-01-25T11:41:54.007Z,78.73
2023-01-25T11:45:08.835Z,79.28
2023-01-25T11:48:35.653Z,79.32
2023-01-25T11:51:51.824Z,79.08
2023-01-25T11:55:03.735Z,78.64
2023-01-25T11:58:19.062Z,79.85
2023-01-25T12:01:42.696Z,78.68
2023-01-25T12:05:21.535Z,79.11
2023-01-25T12:09:10.180Z,79.04
2023-01-25T12:12:35.367Z,79.19
2023-01-25T12:15:50.528Z,79.15
2023-01-25T12:19:32.150Z,79.43
2023-01-25T12:22:41.297Z,79.72
2023-01-25T12:26:04.834Z,78.85
2023-01-25T12:29:34.393Z,79.43
2023-01-25T12:32:47.514Z,79.36
2023-01-25T12:36:02.627Z,80.07
2023-01-25T12:39:12.625Z,80.27
2023-01-25T12:42:21.701Z,80.09
2023-01-25T12:45:27.684Z,80.42
2023-01-25T12:48:36.737Z,80.26
2023-01-25T12:51:43.039Z,80.20
2023-01-25T12:54:48.615Z,80.14
2023-01-25T12:58:00.583Z,80.16
2023-01-25T13:01:16.535Z,79.88
2023-01-25T13:04:41.536Z,80.00
2023-01-25T13:08:00.429Z,80.48
2023-01-25T13:11:12.463Z,80.34
2023-01-25T13:14:18.236Z,79.92
2023-01-25T13:17:29.483Z,80.47
2023-01-25T13:20:41.419Z,80.89
2023-01-25T13:23:47.392Z,81.03
2023-01-25T13:26:53.335Z,81.07
2023-01-25T13:29:59.191Z,81.20
2023-01-25T13:33:07.315Z,80.23
2023-01-25T13:36:45.325Z,79.77
2023-01-25T13:39:56.557Z,79.73
2023-01-25T13:43:03.795Z,80.42
2023-01-25T13:46:11.327Z,80.82
2023-01-25T13:49:24.002Z,81.05
2023-01-25T13:52:29.419Z,80.80
2023-01-25T13:55:41.880Z,80.78
2023-01-25T13:58:50.804Z,80.89
2023-01-25T14:01:54.012Z,81.00
2023-01-25T14:04:58.655Z,81.23
2023-01-25T14:08:01.691Z,81.80
2023-01-25T14:11:05.530Z,82.05
2023-01-25T14:14:33.132Z,81.92
2023-01-25T14:17:35.971Z,82.03
2023-01-25T14:20:38.843Z,82.02
2023-01-25T14:23:41.941Z,82.13
2023-01-25T14:26:47.404Z,82.09
2023-01-25T14:29:50.525Z,82.11
2023-01-25T14:32:56.896Z,81.96
2023-01-25T14:36:22.884Z,82.03
2023-01-25T14:39:30.462Z,82.50
2023-01-25T14:42:33.495Z,82.26
2023-01-25T14:45:36.300Z,82.39
2023-01-25T14:48:41.796Z,82.21
2023-01-25T14:52:03.176Z,82.47
2023-01-25T14:55:09.205Z,82.95
2023-01-25T14:58:22.050Z,83.02
2023-01-25T15:01:36.375Z,83.22
2023-01-25T15:04:39.405Z,83.62
2023-01-25T15:07:47.774Z,83.80
2023-01-25T15:10:53.705Z,84.15
2023-01-25T15:14:03.455Z,84.00
2023-01-25T15:17:06.388Z,83.69
2023-01-25T15:20:32.549Z,84.20
2023-01-25T15:23:35.724Z,84.50
2023-01-25T15:26:38.726Z,84.56
2023-01-25T15:29:42.127Z,84.79
2023-01-25T15:32:46.266Z,84.75
2023-01-25T15:35:50.683Z,84.52
2023-01-25T15:38:53.925Z,84.65
2023-01-25T15:41:56.993Z,85.05
2023-01-25T15:44:59.928Z,85.04
2023-01-25T15:48:02.800Z,85.12
2023-01-25T15:51:05.769Z,84.98
2023-01-25T15:54:09.480Z,85.38
2023-01-25T15:57:31.747Z,85.73
2023-01-25T16:00:34.598Z,85.18
2023-01-25T16:03:41.581Z,85.13
2023-01-25T16:06:55.129Z,85.49
2023-01-25T16:09:58.038Z,85.31
2023-01-25T16:13:01.012Z,85.34
2023-01-25T16:16:04.157Z,85.43
2023-01-25T16:19:07.012Z,85.49
2023-01-25T16:22:10.569Z,85.53
2023-01-25T16:25:13.667Z,85.38
2023-01-25T16:28:16.648Z,85.83
2023-01-25T16:31:32.008Z,85.40
2023-01-25T16:34:35.628Z,85.19
2023-01-25T16:37:38.560Z,85.22
2023-01-25T16:40:41.720Z,85.31
2023-01-25T16:43:47.154Z,85.08
2023-01-25T16:46:50.585Z,84.93
2023-01-25T16:49:53.546Z,85.42
2023-01-25T16:52:58.586Z,85.65
2023-01-25T16:56:01.664Z,85.50
2023-01-25T16:59:06.359Z,85.26
2023-01-25T17:02:12.174Z,85.43
2023-01-25T17:05:15.209Z,85.06
2023-01-25T17:08:18.161Z,84.83
2023-01-25T17:11:22.146Z,84.82
2023-01-25T17:14:25.023Z,85.11
2023-01-25T17:17:29.851Z,85.25
2023-01-25T17:20:32.754Z,85.24
2023-01-25T17:23:37.674Z,85.26
2023-01-25T17:26:40.971Z,85.35
2023-01-25T17:29:44.208Z,85.36
2023-01-25T17:32:47.129Z,85.32
2023-01-25T17:35:51.105Z,85.56
2023-01-25T17:38:54.172Z,85.74
2023-01-25T17:41:56.984Z,85.76
2023-01-25T17:44:59.742Z,86.02
2023-01-25T17:48:02.638Z,86.02
2023-01-25T17:51:05.791Z,85.77
2023-01-25T17:54:09.937Z,86.32
2023-01-25T17:57:12.988Z,85.03
2023-01-25T18:00:16.281Z,85.18
2023-01-25T18:03:19.669Z,85.48
2023-01-25T18:06:25.312Z,85.40
2023-01-25T18:09:28.474Z,85.47
2023-01-25T18:12:31.366Z,85.23
2023-01-25T18:15:34.542Z,85.47
2023-01-25T18:18:39.216Z,85.07
2023-01-25T18:21:42.464Z,85.09
2023-01-25T18:24:46.590Z,85.26
2023-01-25T18:27:49.510Z,85.77
2023-01-25T18:30:57.517Z,85.66
2023-01-25T18:34:00.587Z,85.84
2023-01-25T18:37:17.845Z,85.45
2023-01-25T18:40:20.804Z,86.04
2023-01-25T18:43:23.858Z,86.06
2023-01-25T18:46:26.813Z,86.16
2023-01-25T18:49:29.949Z,85.93
2023-01-25T18:52:35.437Z,85.91
2023-01-25T18:55:38.797Z,86.30
2023-01-25T18:58:42.281Z,86.07
2023-01-25T19:01:45.296Z,86.39
2023-01-25T19:04:48.157Z,85.71
2023-01-25T19:07:51.056Z,85.96
2023-01-25T19:11:08.770Z,86.21
2023-01-25T19:14:11.646Z,85.97
2023-01-25T19:17:14.508Z,86.26
2023-01-25T19:20:17.548Z,86.19
2023-01-25T19:23:20.571Z,86.45
2023-01-25T19:26:24.954Z,86.59
2023-01-25T19:29:28.016Z,87.00
2023-01-25T19:32:31.062Z,86.92
2023-01-25T19:35:33.884Z,87.12
2023-01-25T19:38:40.485Z,86.77
2023-01-25T19:41:43.348Z,86.74
2023-01-25T19:44:47.994Z,86.91
2023-01-25T19:47:50.999Z,86.71
2023-01-25T19:50:54.016Z,86.58
2023-01-25T19:54:00.218Z,86.89
2023-01-25T19:57:03.189Z,86.41
2023-01-25T20:00:06.851Z,86.40
2023-01-25T20:03:16.296Z,87.24
2023-01-25T20:06:20.716Z,87.18
2023-01-25T20:09:28.067Z,87.18
2023-01-25T20:12:31.248Z,87.06
2023-01-25T20:15:34.140Z,87.14
2023-01-25T20:18:37.384Z,87.23
2023-01-25T20:21:40.629Z,87.05
2023-01-25T20:24:43.691Z,87.19
2023-01-25T20:27:46.691Z,86.91
2023-01-25T20:30:49.709Z,87.31
2023-01-25T20:33:55.920Z,87.25
2023-01-25T20:37:00.378Z,87.31
2023-01-25T20:40:03.514Z,87.12
2023-01-25T20:43:06.583Z,87.07
2023-01-25T20:46:09.461Z,86.74
2023-01-25T20:49:17.772Z,86.82
2023-01-25T20:52:20.718Z,86.76
2023-01-25T20:55:23.521Z,86.44
2023-01-25T20:58:27.711Z,86.38
2023-01-25T21:01:38.200Z,85.89
2023-01-25T21:04:41.236Z,86.55
2023-01-25T21:07:44.159Z,86.69
2023-01-25T21:10:52.534Z,86.24
2023-01-25T21:13:55.454Z,86.17
2023-01-25T21:16:58.368Z,86.04
2023-01-25T21:20:01.400Z,86.53
2023-01-25T21:23:04.703Z,86.50
2023-01-25T21:26:12.851Z,86.46
2023-01-25T21:29:15.769Z,86.71
2023-01-25T21:32:18.715Z,86.26
2023-01-25T21:35:21.667Z,86.44
2023-01-25T21:38:25.387Z,86.33
2023-01-25T21:41:31.366Z,86.28
2023-01-25T21:44:52.712Z,86.29
2023-01-25T21:48:00.012Z,86.18
2023-01-25T21:51:21.541Z,86.18
2023-01-25T21:54:33.159Z,86.19
2023-01-25T21:57:36.163Z,86.45
2023-01-25T22:00:39.101Z,86.44
2023-01-25T22:03:42.112Z,86.50
2023-01-25T22:06:45.489Z,86.93
2023-01-25T22:09:49.524Z,86.90
2023-01-25T22:12:52.442Z,86.80
2023-01-25T22:16:00.111Z,86.85
2023-01-25T22:19:03.330Z,86.97
2023-01-25T22:22:06.246Z,87.05
2023-01-25T22:25:09.550Z,86.94
2023-01-25T22:28:14.494Z,86.93
2023-01-25T22:31:21.044Z,87.14
2023-01-25T22:34:24.006Z,87.00
2023-01-25T22:37:26.919Z,87.55
2023-01-25T22:40:29.830Z,87.48
2023-01-25T22:43:33.001Z,87.61
2023-01-25T22:46:36.930Z,87.65
2023-01-25T22:49:39.859Z,87.23
2023-01-25T22:52:42.760Z,87.38
2023-01-25T22:55:45.667Z,87.37
2023-01-25T22:58:49.151Z,87.63
2023-01-25T23:01:52.147Z,87.43
2023-01-25T23:04:55.158Z,87.27
2023-01-25T23:07:59.185Z,87.13
2023-01-25T23:11:04.549Z,87.06
2023-01-25T23:14:29.966Z,87.35
2023-01-25T23:17:52.497Z,87.35
2023-01-25T23:20:55.390Z,87.18
2023-01-25T23:24:03.255Z,87.14
2023-01-25T23:27:06.292Z,87.46
2023-01-25T23:30:10.829Z,87.78
2023-01-25T23:33:13.973Z,87.95
2023-01-25T23:36:20.878Z,87.60
2023-01-25T23:39:23.825Z,87.65
2023-01-25T23:42:26.691Z,87.47
2023-01-25T23:45:29.608Z,87.58
2023-01-25T23:48:32.785Z,87.55
2023-01-25T23:51:35.628Z,87.18
2023-01-25T23:54:38.664Z,87.58
2023-01-25T23:57:41.572Z,87.57
